createdAt,value
2023-01-25T00:00:23.238Z,17.55
2023-01-25T00:02:49.973Z,16.10
2023-01-25T00:05:16.720Z,15.00
2023-01-25T00:07:43.383Z,16.73
2023-01-25T00:10:10.624Z,16.77
2023-01-25T00:12:37.307Z,16.88
2023-01-25T00:15:04.294Z,16.25
2023-01-25T00:17:30.954Z,17.52
2023-01-25T00:19:57.607Z,16.77
2023-01-25T00:22:24.304Z,18.65
2023-01-25T00:24:51.030Z,17.80
2023-01-25T00:27:17.673Z,18.40
2023-01-25T00:29:44.423Z,16.60
2023-01-25T00:32:11.152Z,18.50
2023-01-25T00:34:46.136Z,17.20
2023-01-25T00:37:22.620Z,16.80
2023-01-25T00:39:49.359Z,17.30
2023-01-25T00:42:17.618Z,19.33
2023-01-25T00:44:45.563Z,17.80
2023-01-25T00:47:13.037Z,18.20
2023-01-25T00:49:41.669Z,18.30
2023-01-25T00:52:09.245Z,17.95
2023-01-25T00:54:36.154Z,19.58
2023-01-25T00:57:03.718Z,15.75
2023-01-25T00:59:30.579Z,16.33
2023-01-25T01:01:57.285Z,18.80
2023-01-25T01:04:27.125Z,16.13
2023-01-25T01:06:54.664Z,15.50
2023-01-25T01:09:22.730Z,15.20
2023-01-25T01:11:52.158Z,15.93
2023-01-25T01:14:19.311Z,16.75
2023-01-25T01:16:46.356Z,16.23
2023-01-25T01:19:13.928Z,16.27
2023-01-25T01:21:40.813Z,17.02
2023-01-25T01:24:08.766Z,15.65
2023-01-25T01:26:35.530Z,17.13
2023-01-25T01:29:02.199Z,16.73
2023-01-25T01:31:29.089Z,17.13
2023-01-25T01:34:22.466Z,16.70
2023-01-25T01:36:49.214Z,15.05
2023-01-25T01:39:16.627Z,15.57
2023-01-25T01:41:43.291Z,17.77
2023-01-25T01:44:18.019Z,17.23
2023-01-25T01:46:54.654Z,18.73
2023-01-25T01:49:27.471Z,19.00
2023-01-25T01:52:05.403Z,18.30
2023-01-25T01:54:41.616Z,18.27
2023-01-25T01:57:25.549Z,19.25
2023-01-25T01:59:59.731Z,19.52
2023-01-25T02:02:27.211Z,17.92
2023-01-25T02:04:59.205Z,19.23
2023-01-25T02:07:34.856Z,18.63
2023-01-25T02:10:04.614Z,18.52
2023-01-25T02:12:32.347Z,20.52
2023-01-25T02:14:59.993Z,19.48
2023-01-25T02:17:34.457Z,17.98
2023-01-25T02:20:09.189Z,18.40
2023-01-25T02:23:13.016Z,19.80
2023-01-25T02:25:41.681Z,18.23
2023-01-25T02:28:14.487Z,19.20
2023-01-25T02:30:42.855Z,18.25
2023-01-25T02:33:09.779Z,17.73
2023-01-25T02:35:48.693Z,17.95
2023-01-25T02:38:19.250Z,19.02
2023-01-25T02:41:00.464Z,18.77
2023-01-25T02:43:32.394Z,20.65
2023-01-25T02:46:28.363Z,18.17
2023-01-25T02:48:56.094Z,17.17
2023-01-25T02:51:25.319Z,16.90
2023-01-25T02:53:52.985Z,19.02
2023-01-25T02:56:21.339Z,18.45
2023-01-25T02:58:48.476Z,20.27
2023-01-25T03:01:16.693Z,19.73
2023-01-25T03:03:43.461Z,18.67
2023-01-25T03:06:10.878Z,18.70
2023-01-25T03:08:37.598Z,18.25
2023-01-25T03:11:06.544Z,19.85
2023-01-25T03:13:35.748Z,18.75
2023-01-25T03:16:05.906Z,21.30
2023-01-25T03:18:34.120Z,21.67
2023-01-25T03:21:08.351Z,20.20
2023-01-25T03:23:35.921Z,21.13
2023-01-25T03:26:10.668Z,19.50
2023-01-25T03:28:42.160Z,21.17
2023-01-25T03:31:11.584Z,22.75
2023-01-25T03:33:39.328Z,20.73
2023-01-25T03:36:07.026Z,23.05
2023-01-25T03:38:34.624Z,23.88
2023-01-25T03:41:01.770Z,21.23
2023-01-25T03:43:29.443Z,21.08
2023-01-25T03:45:58.703Z,20.92
2023-01-25T03:48:26.751Z,22.30
2023-01-25T03:50:56.434Z,23.17
2023-01-25T03:53:31.007Z,19.58
2023-01-25T03:56:10.083Z,20.38
2023-01-25T03:58:39.337Z,21.05
2023-01-25T04:01:08.219Z,20.55
2023-01-25T04:03:34.988Z,20.73
2023-01-25T04:06:02.827Z,21.05
2023-01-25T04:08:30.942Z,18.20
2023-01-25T04:11:04.801Z,20.17
2023-01-25T04:13:34.985Z,19.33
2023-01-25T04:16:02.863Z,20.42
2023-01-25T04:18:59.455Z,18.67
2023-01-25T04:21:27.848Z,18.92
2023-01-25T04:23:54.570Z,19.60
2023-01-25T04:26:21.495Z,18.88
2023-01-25T04:28:53.701Z,19.95
2023-01-25T04:31:20.879Z,19.30
2023-01-25T04:33:50.551Z,20.02
2023-01-25T04:36:19.072Z,18.15
2023-01-25T04:38:46.669Z,21.23
2023-01-25T04:41:13.753Z,21.00
2023-01-25T04:43:41.931Z,20.75
2023-01-25T04:46:10.422Z,19.15
2023-01-25T04:48:37.635Z,18.83
2023-01-25T04:51:06.497Z,18.38
2023-01-25T04:53:34.379Z,18.58
2023-01-25T04:56:03.441Z,19.00
2023-01-25T04:58:34.796Z,19.17
2023-01-25T05:01:02.728Z,18.45
2023-01-25T05:03:29.861Z,18.70
2023-01-25T05:05:57.668Z,19.40
2023-01-25T05:08:26.727Z,19.55
2023-01-25T05:10:58.365Z,19.90
2023-01-25T05:13:28.021Z,18.05
2023-01-25T05:16:08.977Z,19.00
2023-01-25T05:18:47.992Z,20.67
2023-01-25T05:21:39.569Z,21.55
2023-01-25T05:24:07.840Z,18.65
2023-01-25T05:26:53.511Z,19.50
2023-01-25T05:29:21.103Z,21.60
2023-01-25T05:31:56.962Z,22.30
2023-01-25T05:34:24.368Z,18.60
2023-01-25T05:36:51.121Z,20.20
2023-01-25T05:39:18.225Z,22.55
2023-01-25T05:41:47.339Z,21.10
2023-01-25T05:44:14.456Z,20.52
2023-01-25T05:46:46.014Z,18.10
2023-01-25T05:49:12.763Z,24.33
2023-01-25T05:51:40.507Z,18.48
2023-01-25T05:54:09.412Z,20.70
2023-01-25T05:56:36.160Z,20.00
2023-01-25T05:59:02.972Z,22.17
2023-01-25T06:01:30.095Z,23.27
2023-01-25T06:03:58.352Z,21.75
2023-01-25T06:06:25.823Z,21.23
2023-01-25T06:08:52.990Z,20.42
2023-01-25T06:11:22.349Z,19.25
2023-01-25T06:13:51.188Z,21.33
2023-01-25T06:16:19.159Z,20.73
2023-01-25T06:19:01.429Z,22.00
2023-01-25T06:22:00.515Z,21.15
2023-01-25T06:24:27.205Z,28.27
2023-01-25T06:26:53.915Z,22.92
2023-01-25T06:29:20.548Z,21.02
2023-01-25T06:31:47.242Z,20.35
2023-01-25T06:34:14.412Z,19.35
2023-01-25T06:36:41.069Z,22.50
2023-01-25T06:39:07.804Z,28.73
2023-01-25T06:41:35.084Z,19.70
2023-01-25T06:44:01.776Z,21.90
2023-01-25T06:46:31.455Z,21.13
2023-01-25T06:48:58.206Z,23.33
2023-01-25T06:51:24.834Z,22.67
2023-01-25T06:53:51.515Z,22.75
2023-01-25T06:56:22.563Z,19.35
2023-01-25T06:58:50.415Z,18.65
2023-01-25T07:01:22.761Z,28.25
2023-01-25T07:03:55.071Z,25.58
2023-01-25T07:06:22.693Z,22.25
2023-01-25T07:08:49.643Z,22.40
2023-01-25T07:11:18.891Z,24.52
2023-01-25T07:13:46.843Z,23.40
2023-01-25T07:16:16.197Z,22.60
2023-01-25T07:18:43.117Z,20.75
2023-01-25T07:21:14.419Z,21.60
2023-01-25T07:23:41.959Z,21.70
2023-01-25T07:26:20.585Z,20.52
2023-01-25T07:28:48.183Z,27.52
2023-01-25T07:31:16.255Z,30.20
2023-01-25T07:33:43.014Z,26.33
2023-01-25T07:36:10.922Z,25.25
2023-01-25T07:38:37.855Z,22.25
2023-01-25T07:41:04.953Z,24.88
2023-01-25T07:43:32.321Z,22.85
2023-01-25T07:46:07.528Z,21.15
2023-01-25T07:48:34.574Z,20.92
2023-01-25T07:51:12.160Z,21.45
2023-01-25T07:53:43.612Z,21.27
2023-01-25T07:56:12.006Z,22.75
2023-01-25T07:58:39.413Z,25.05
2023-01-25T08:01:11.268Z,29.50
2023-01-25T08:03:38.167Z,24.05
2023-01-25T08:06:06.593Z,22.05
2023-01-25T08:08:38.515Z,18.95
2023-01-25T08:11:17.761Z,21.35
2023-01-25T08:13:46.213Z,21.90
2023-01-25T08:16:14.338Z,22.02
2023-01-25T08:18:41.099Z,25.15
2023-01-25T08:21:08.170Z,21.38
2023-01-25T08:23:35.267Z,20.70
2023-01-25T08:26:10.464Z,18.92
2023-01-25T08:28:37.315Z,18.75
2023-01-25T08:31:14.358Z,19.98
2023-01-25T08:33:42.387Z,24.00
2023-01-25T08:36:10.679Z,20.77
2023-01-25T08:38:37.743Z,22.58
2023-01-25T08:41:06.266Z,19.25
2023-01-25T08:43:33.522Z,19.23
2023-01-25T08:46:00.334Z,22.52
2023-01-25T08:48:27.038Z,20.13
2023-01-25T08:50:53.706Z,18.08
2023-01-25T08:53:20.805Z,21.77
2023-01-25T08:55:47.470Z,24.60
2023-01-25T08:58:16.104Z,20.10
2023-01-25T09:00:44.056Z,20.75
2023-01-25T09:03:11.683Z,17.40
2023-01-25T09:05:39.254Z,17.08
2023-01-25T09:08:08.912Z,18.15
2023-01-25T09:10:36.049Z,18.58
2023-01-25T09:13:02.717Z,19.20
2023-01-25T09:15:29.642Z,16.20
2023-01-25T09:17:57.288Z,19.70
2023-01-25T09:20:24.282Z,18.10
2023-01-25T09:22:51.035Z,18.85
2023-01-25T09:25:18.267Z,15.90
2023-01-25T09:27:45.224Z,15.45
2023-01-25T09:30:18.162Z,16.73
2023-01-25T09:32:50.472Z,18.80
2023-01-25T09:35:17.703Z,16.38
2023-01-25T09:37:44.384Z,19.30
2023-01-25T09:40:28.265Z,16.15
2023-01-25T09:43:11.583Z,16.45
2023-01-25T09:45:38.416Z,18.23
2023-01-25T09:48:25.678Z,19.42
2023-01-25T09:50:58.226Z,18.77
2023-01-25T09:53:31.259Z,17.73
2023-01-25T09:56:11.512Z,16.30
2023-01-25T09:58:46.452Z,22.90
2023-01-25T10:01:32.831Z,17.85
2023-01-25T10:04:06.977Z,15.27
2023-01-25T10:06:46.073Z,15.57
2023-01-25T10:09:23.464Z,17.30
2023-01-25T10:11:50.199Z,28.42
2023-01-25T10:14:19.595Z,16.23
2023-01-25T10:16:46.297Z,16.17
2023-01-25T10:19:20.759Z,15.63
2023-01-25T10:21:54.787Z,15.48
2023-01-25T10:24:44.265Z,14.32
2023-01-25T10:27:18.467Z,16.30
2023-01-25T10:29:46.418Z,13.63
2023-01-25T10:32:35.766Z,14.20
2023-01-25T10:35:34.810Z,13.48
2023-01-25T10:38:09.988Z,12.55
2023-01-25T10:40:45.734Z,13.45
2023-01-25T10:43:17.891Z,13.50
2023-01-25T10:45:44.640Z,13.00
2023-01-25T10:48:17.448Z,12.15
2023-01-25T10:50:48.664Z,11.82
2023-01-25T10:53:30.277Z,12.82
2023-01-25T10:56:11.188Z,12.65
2023-01-25T10:58:42.176Z,12.60
2023-01-25T11:01:31.812Z,12.77
2023-01-25T11:03:59.917Z,12.80
2023-01-25T11:06:46.617Z,12.85
2023-01-25T11:09:31.097Z,13.30
2023-01-25T11:12:00.421Z,13.00
2023-01-25T11:14:30.363Z,14.43
2023-01-25T11:16:59.136Z,13.60
2023-01-25T11:19:33.930Z,12.70
2023-01-25T11:22:04.683Z,13.10
2023-01-25T11:24:34.382Z,14.57
2023-01-25T11:27:24.590Z,13.18
2023-01-25T11:30:12.647Z,13.23
2023-01-25T11:32:40.816Z,13.85
2023-01-25T11:35:23.398Z,13.88
2023-01-25T11:38:08.951Z,13.20
2023-01-25T11:40:41.643Z,13.13
2023-01-25T11:43:33.087Z,14.35
2023-01-25T11:46:43.729Z,15.07
2023-01-25T11:49:34.401Z,14.23
2023-01-25T11:52:30.857Z,16.35
2023-01-25T11:55:14.451Z,16.20
2023-01-25T11:58:15.707Z,14.65
2023-01-25T12:00:51.265Z,15.18
2023-01-25T12:03:44.530Z,13.55
2023-01-25T12:06:36.811Z,15.85
2023-01-25T12:09:16.155Z,15.88
2023-01-25T12:11:52.481Z,16.42
2023-01-25T12:14:35.607Z,13.35
2023-01-25T12:17:47.099Z,14.70
2023-01-25T12:20:26.200Z,13.73
2023-01-25T12:23:33.998Z,14.00
2023-01-25T12:26:42.556Z,14.25
2023-01-25T12:29:18.630Z,12.85
2023-01-25T12:31:55.330Z,14.43
2023-01-25T12:34:33.099Z,13.27
2023-01-25T12:37:10.481Z,13.23
2023-01-25T12:39:51.179Z,16.17
2023-01-25T12:42:26.775Z,16.73
2023-01-25T12:45:03.866Z,17.88
2023-01-25T12:47:37.715Z,14.30
2023-01-25T12:50:43.365Z,17.20
2023-01-25T12:53:31.173Z,14.63
2023-01-25T12:55:58.790Z,15.70
2023-01-25T12:58:38.419Z,15.38
2023-01-25T13:01:23.229Z,13.35
2023-01-25T13:04:13.817Z,17.77
2023-01-25T13:06:57.131Z,15.00
2023-01-25T13:09:40.480Z,14.90
2023-01-25T13:12:11.739Z,14.10
2023-01-25T13:14:40.280Z,13.65
2023-01-25T13:17:40.603Z,11.95
2023-01-25T13:20:48.116Z,14.48
2023-01-25T13:23:34.727Z,14.00
2023-01-25T13:26:37.253Z,28.38
2023-01-25T13:29:04.055Z,21.75
2023-01-25T13:31:51.531Z,13.85
2023-01-25T13:34:42.429Z,14.90
2023-01-25T13:37:31.049Z,14.70
2023-01-25T13:40:09.696Z,14.90
2023-01-25T13:42:39.417Z,13.32
2023-01-25T13:45:18.693Z,13.95
2023-01-25T13:48:04.154Z,13.68
2023-01-25T13:50:34.604Z,13.52
2023-01-25T13:53:17.728Z,12.90
2023-01-25T13:55:58.024Z,13.35
2023-01-25T13:58:28.027Z,14.93
2023-01-25T14:01:08.260Z,15.93
2023-01-25T14:03:44.539Z,29.20
2023-01-25T14:06:17.629Z,15.27
2023-01-25T14:08:46.469Z,18.58
2023-01-25T14:11:25.807Z,17.63
2023-01-25T14:14:20.106Z,18.70
2023-01-25T14:16:47.143Z,17.67
2023-01-25T14:19:24.912Z,31.67
2023-01-25T14:22:21.369Z,44.97
2023-01-25T14:25:16.997Z,18.50
2023-01-25T14:27:59.794Z,31.15
2023-01-25T14:30:32.677Z,19.75
2023-01-25T14:33:02.351Z,17.42
2023-01-25T14:35:42.602Z,22.40
2023-01-25T14:38:30.115Z,27.63
2023-01-25T14:41:14.394Z,19.17
2023-01-25T14:43:53.472Z,19.77
2023-01-25T14:46:26.189Z,18.55
2023-01-25T14:49:09.638Z,17.33
2023-01-25T14:51:49.353Z,22.15
2023-01-25T14:54:34.659Z,19.35
2023-01-25T14:57:04.320Z,19.48
2023-01-25T14:59:34.199Z,20.30
2023-01-25T15:02:16.113Z,29.25
2023-01-25T15:05:16.172Z,22.08
2023-01-25T15:07:57.418Z,28.17
2023-01-25T15:10:32.740Z,31.08
2023-01-25T15:13:13.595Z,30.08
2023-01-25T15:16:10.487Z,29.48
2023-01-25T15:18:51.393Z,38.28
2023-01-25T15:21:29.595Z,46.28
2023-01-25T15:23:58.094Z,28.83
2023-01-25T15:26:27.070Z,36.22
2023-01-25T15:28:55.974Z,29.80
2023-01-25T15:31:30.379Z,37.38
2023-01-25T15:33:58.023Z,11.85
2023-01-25T15:36:24.907Z,56.80
2023-01-25T15:38:51.756Z,32.72
2023-01-25T15:41:18.699Z,36.15
2023-01-25T15:43:49.539Z,44.13
2023-01-25T15:46:23.586Z,34.80
2023-01-25T15:48:51.389Z,52.20
2023-01-25T15:51:19.019Z,52.65
2023-01-25T15:53:46.739Z,38.35
2023-01-25T15:56:16.714Z,32.90
2023-01-25T15:58:47.695Z,47.38
2023-01-25T16:01:14.472Z,55.63
2023-01-25T16:03:41.614Z,44.17
2023-01-25T16:06:30.248Z,44.13
2023-01-25T16:08:58.708Z,38.97
2023-01-25T16:11:26.281Z,37.83
2023-01-25T16:13:52.933Z,45.70
2023-01-25T16:16:23.190Z,33.10
2023-01-25T16:18:50.346Z,43.95
2023-01-25T16:21:18.498Z,37.70
2023-01-25T16:23:45.218Z,37.35
2023-01-25T16:26:20.741Z,40.03
2023-01-25T16:28:47.438Z,45.38
2023-01-25T16:31:30.897Z,39.50
2023-01-25T16:33:59.146Z,54.08
2023-01-25T16:36:25.863Z,44.55
2023-01-25T16:38:52.643Z,34.88
2023-01-25T16:41:19.280Z,44.05
2023-01-25T16:43:47.863Z,36.25
2023-01-25T16:46:20.643Z,40.63
2023-01-25T16:48:49.376Z,39.90
2023-01-25T16:51:28.695Z,51.92
2023-01-25T16:53:57.987Z,40.25
2023-01-25T16:56:33.393Z,40.05
2023-01-25T16:59:05.026Z,48.40
2023-01-25T17:01:32.497Z,46.97
2023-01-25T17:04:00.622Z,50.40
2023-01-25T17:06:30.109Z,48.22
2023-01-25T17:09:00.300Z,41.15
2023-01-25T17:11:27.754Z,41.55
2023-01-25T17:13:56.818Z,43.63
2023-01-25T17:16:26.420Z,37.67
2023-01-25T17:19:03.414Z,44.65
2023-01-25T17:21:30.464Z,47.58
2023-01-25T17:24:00.245Z,40.97
2023-01-25T17:26:29.059Z,42.15
2023-01-25T17:28:57.224Z,34.55
2023-01-25T17:31:26.701Z,37.83
2023-01-25T17:33:54.783Z,45.50
2023-01-25T17:36:21.585Z,48.20
2023-01-25T17:38:48.350Z,47.72
2023-01-25T17:41:17.017Z,56.47
2023-01-25T17:43:43.826Z,47.42
2023-01-25T17:46:12.439Z,43.50
2023-01-25T17:48:39.864Z,45.58
2023-01-25T17:51:07.076Z,42.22
2023-01-25T17:53:34.003Z,48.42
2023-01-25T17:56:04.723Z,34.67
2023-01-25T17:58:34.159Z,42.60
2023-01-25T18:01:13.027Z,48.47
2023-01-25T18:03:41.061Z,43.13
2023-01-25T18:06:09.021Z,40.40
2023-01-25T18:08:44.106Z,40.42
2023-01-25T18:11:15.294Z,40.13
2023-01-25T18:13:43.867Z,39.08
2023-01-25T18:16:11.517Z,39.70
2023-01-25T18:18:39.503Z,50.15
2023-01-25T18:21:24.063Z,39.40
2023-01-25T18:23:56.971Z,41.72
2023-01-25T18:26:27.089Z,43.05
2023-01-25T18:28:57.610Z,47.15
2023-01-25T18:31:24.619Z,45.80
2023-01-25T18:33:51.346Z,46.13
2023-01-25T18:36:20.388Z,47.95
2023-01-25T18:38:47.340Z,50.38
2023-01-25T18:41:14.053Z,53.28
2023-01-25T18:43:40.710Z,52.30
2023-01-25T18:46:07.764Z,45.70
2023-01-25T18:48:36.174Z,47.72
2023-01-25T18:51:11.288Z,42.58
2023-01-25T18:53:40.040Z,40.35
2023-01-25T18:56:10.622Z,43.90
2023-01-25T18:58:38.500Z,45.60
2023-01-25T19:01:15.011Z,41.90
2023-01-25T19:03:45.995Z,44.15
2023-01-25T19:06:13.214Z,44.30
2023-01-25T19:08:44.441Z,41.20
2023-01-25T19:11:17.341Z,48.67
2023-01-25T19:13:44.464Z,47.13
2023-01-25T19:16:12.680Z,44.80
2023-01-25T19:18:45.790Z,43.20
2023-01-25T19:21:15.003Z,42.80
2023-01-25T19:23:42.024Z,47.63
2023-01-25T19:26:15.520Z,44.25
2023-01-25T19:28:43.237Z,38.33
2023-01-25T19:31:16.150Z,45.83
2023-01-25T19:33:44.222Z,40.35
2023-01-25T19:36:18.058Z,37.70
2023-01-25T19:38:46.398Z,40.70
2023-01-25T19:41:18.671Z,40.03
2023-01-25T19:43:45.748Z,36.75
2023-01-25T19:46:22.612Z,56.28
2023-01-25T19:48:50.782Z,43.20
2023-01-25T19:51:29.838Z,39.92
2023-01-25T19:54:17.462Z,39.50
2023-01-25T19:56:49.425Z,38.67
2023-01-25T19:59:17.661Z,31.58
2023-01-25T20:01:46.058Z,32.88
2023-01-25T20:04:15.920Z,30.95
2023-01-25T20:06:43.351Z,30.98
2023-01-25T20:09:14.161Z,31.50
2023-01-25T20:11:41.401Z,33.10
2023-01-25T20:14:10.419Z,33.25
2023-01-25T20:16:37.132Z,28.15
2023-01-25T20:19:04.650Z,30.17
2023-01-25T20:21:33.407Z,29.85
2023-01-25T20:24:05.834Z,29.50
2023-01-25T20:26:37.256Z,26.73
2023-01-25T20:29:04.657Z,30.85
2023-01-25T20:31:42.798Z,29.13
2023-01-25T20:34:17.887Z,31.58
2023-01-25T20:36:44.608Z,33.33
2023-01-25T20:39:13.789Z,30.85
2023-01-25T20:41:40.787Z,27.52
2023-01-25T20:44:08.741Z,27.05
2023-01-25T20:46:40.259Z,29.58
2023-01-25T20:49:10.166Z,29.88
2023-01-25T20:51:37.056Z,27.33
2023-01-25T20:54:03.840Z,28.45
2023-01-25T20:56:31.674Z,29.45
2023-01-25T20:58:58.495Z,30.90
2023-01-25T21:01:33.220Z,34.25
2023-01-25T21:03:59.834Z,31.25
2023-01-25T21:06:27.351Z,33.83
2023-01-25T21:08:54.853Z,30.02
2023-01-25T21:11:23.139Z,39.45
2023-01-25T21:13:49.855Z,31.42
2023-01-25T21:16:19.092Z,27.92
2023-01-25T21:18:48.384Z,29.77
2023-01-25T21:21:23.627Z,31.10
2023-01-25T21:23:51.026Z,28.63
2023-01-25T21:26:18.932Z,25.55
2023-01-25T21:28:46.719Z,32.10
2023-01-25T21:31:15.354Z,28.77
2023-01-25T21:33:42.316Z,25.40
2023-01-25T21:36:11.519Z,32.40
2023-01-25T21:38:39.671Z,30.30
2023-01-25T21:41:09.627Z,26.70
2023-01-25T21:43:55.203Z,31.92
2023-01-25T21:46:26.389Z,37.85
2023-01-25T21:49:16.626Z,24.02
2023-01-25T21:51:51.834Z,37.90
2023-01-25T21:54:23.838Z,28.75
2023-01-25T21:56:52.438Z,30.83
2023-01-25T21:59:20.052Z,36.25
2023-01-25T22:01:47.550Z,29.75
2023-01-25T22:04:15.648Z,27.50
2023-01-25T22:06:42.539Z,28.30
2023-01-25T22:09:09.422Z,33.63
2023-01-25T22:11:36.590Z,26.42
2023-01-25T22:14:03.499Z,28.27
2023-01-25T22:16:30.635Z,24.17
2023-01-25T22:18:57.851Z,24.67
2023-01-25T22:21:28.592Z,27.00
2023-01-25T22:23:55.263Z,28.65
2023-01-25T22:26:24.435Z,28.88
2023-01-25T22:28:53.669Z,25.90
2023-01-25T22:31:25.617Z,32.30
2023-01-25T22:33:53.379Z,26.23
2023-01-25T22:36:22.583Z,27.08
2023-01-25T22:38:50.267Z,22.17
2023-01-25T22:41:23.096Z,23.67
2023-01-25T22:43:50.315Z,27.35
2023-01-25T22:46:28.055Z,24.75
2023-01-25T22:48:55.004Z,28.90
2023-01-25T22:51:25.513Z,22.90
2023-01-25T22:53:52.839Z,23.73
2023-01-25T22:56:22.577Z,23.60
2023-01-25T22:58:50.104Z,20.75
2023-01-25T23:01:28.663Z,23.85
2023-01-25T23:03:56.019Z,21.67
2023-01-25T23:06:27.885Z,20.77
2023-01-25T23:08:56.213Z,17.40
2023-01-25T23:11:24.583Z,19.33
2023-01-25T23:14:11.532Z,22.98
2023-01-25T23:16:39.065Z,20.88
2023-01-25T23:19:05.759Z,19.25
2023-01-25T23:21:32.552Z,23.30
2023-01-25T23:24:00.808Z,20.90
2023-01-25T23:26:29.574Z,24.08
2023-01-25T23:28:57.910Z,25.63
2023-01-25T23:31:25.968Z,22.38
2023-01-25T23:33:58.942Z,20.17
2023-01-25T23:36:28.354Z,22.02
2023-01-25T23:38:55.835Z,18.88
2023-01-25T23:41:23.954Z,21.85
2023-01-25T23:43:50.733Z,18.67
2023-01-25T23:46:17.875Z,19.65
2023-01-25T23:48:45.973Z,20.52
2023-01-25T23:51:14.789Z,20.55
2023-01-25T23:53:41.832Z,19.63
2023-01-25T23:56:20.171Z,20.02
2023-01-25T23:58:47.940Z,19.95
